sensor_id;sensor_type;location;lat;lon;timestamp;P1;durP1;ratioP1;P2;durP2;ratioP2
1382;SDS011;685;47.196;11.880;2023-04-16T00:01:54;4.23;;;3.83;;
1382;SDS011;685;47.196;11.880;2023-04-16T00:04:21;3.83;;;3.50;;
1382;SDS011;685;47.196;11.880;2023-04-16T00:06:48;4.50;;;3.40;;
1382;SDS011;685;47.196;11.880;2023-04-16T00:09:17;5.20;;;4.27;;
1382;SDS011;685;47.196;11.880;2023-04-16T00:11:44;3.63;;;3.33;;
1382;SDS011;685;47.196;11.880;2023-04-16T00:14:11;4.67;;;4.27;;
1382;SDS011;685;47.196;11.880;2023-04-16T00:16:38;4.20;;;3.80;;
1382;SDS011;685;47.196;11.880;2023-04-16T00:19:04;5.30;;;4.70;;
1382;SDS011;685;47.196;11.880;2023-04-16T00:21:31;4.70;;;4.20;;
1382;SDS011;685;47.196;11.880;2023-04-16T00:23:58;7.60;;;5.70;;
1382;SDS011;685;47.196;11.880;2023-04-16T00:26:26;5.00;;;4.50;;
1382;SDS011;685;47.196;11.880;2023-04-16T00:28:53;4.20;;;3.80;;
1382;SDS011;685;47.196;11.880;2023-04-16T00:31:25;4.90;;;4.40;;
1382;SDS011;685;47.196;11.880;2023-04-16T00:33:53;4.40;;;4.00;;
1382;SDS011;685;47.196;11.880;2023-04-16T00:36:20;4.67;;;4.13;;
1382;SDS011;685;47.196;11.880;2023-04-16T00:38:46;5.40;;;4.47;;
1382;SDS011;685;47.196;11.880;2023-04-16T00:41:13;4.90;;;4.50;;
1382;SDS011;685;47.196;11.880;2023-04-16T00:43:42;5.10;;;4.60;;
1382;SDS011;685;47.196;11.880;2023-04-16T00:46:09;6.47;;;5.47;;
1382;SDS011;685;47.196;11.880;2023-04-16T00:48:37;4.77;;;4.17;;
1382;SDS011;685;47.196;11.880;2023-04-16T00:51:06;4.50;;;3.53;;
1382;SDS011;685;47.196;11.880;2023-04-16T00:53:34;3.53;;;3.23;;
1382;SDS011;685;47.196;11.880;2023-04-16T00:56:01;6.13;;;4.10;;
1382;SDS011;685;47.196;11.880;2023-04-16T00:58:29;4.30;;;3.90;;
1382;SDS011;685;47.196;11.880;2023-04-16T01:00:57;4.47;;;4.10;;
1382;SDS011;685;47.196;11.880;2023-04-16T01:03:26;5.60;;;3.70;;
1382;SDS011;685;47.196;11.880;2023-04-16T01:05:57;5.27;;;4.70;;
1382;SDS011;685;47.196;11.880;2023-04-16T01:08:24;4.83;;;4.33;;
1382;SDS011;685;47.196;11.880;2023-04-16T01:10:51;5.33;;;4.83;;
1382;SDS011;685;47.196;11.880;2023-04-16T01:13:18;4.57;;;4.17;;
1382;SDS011;685;47.196;11.880;2023-04-16T01:15:45;5.70;;;5.10;;
1382;SDS011;685;47.196;11.880;2023-04-16T01:18:14;5.20;;;4.70;;
1382;SDS011;685;47.196;11.880;2023-04-16T01:20:43;4.77;;;4.27;;
1382;SDS011;685;47.196;11.880;2023-04-16T01:23:10;5.30;;;4.80;;
1382;SDS011;685;47.196;11.880;2023-04-16T01:25:37;5.20;;;4.70;;
1382;SDS011;685;47.196;11.880;2023-04-16T01:28:04;5.57;;;5.07;;
1382;SDS011;685;47.196;11.880;2023-04-16T01:30:32;4.70;;;4.40;;
1382;SDS011;685;47.196;11.880;2023-04-16T01:32:58;4.97;;;4.47;;
1382;SDS011;685;47.196;11.880;2023-04-16T01:35:25;5.73;;;4.03;;
1382;SDS011;685;47.196;11.880;2023-04-16T01:37:54;4.83;;;4.33;;
1382;SDS011;685;47.196;11.880;2023-04-16T01:40:21;4.13;;;3.63;;
1382;SDS011;685;47.196;11.880;2023-04-16T01:42:48;5.70;;;4.70;;
1382;SDS011;685;47.196;11.880;2023-04-16T01:45:15;7.00;;;4.10;;
1382;SDS011;685;47.196;11.880;2023-04-16T01:47:42;5.17;;;3.97;;
1382;SDS011;685;47.196;11.880;2023-04-16T01:50:09;4.43;;;3.93;;
1382;SDS011;685;47.196;11.880;2023-04-16T01:52:36;5.10;;;4.60;;
1382;SDS011;685;47.196;11.880;2023-04-16T01:55:05;4.17;;;3.70;;
1382;SDS011;685;47.196;11.880;2023-04-16T01:57:32;4.50;;;4.10;;
1382;SDS011;685;47.196;11.880;2023-04-16T01:59:59;5.40;;;4.43;;
1382;SDS011;685;47.196;11.880;2023-04-16T02:02:26;8.27;;;3.90;;
1382;SDS011;685;47.196;11.880;2023-04-16T02:04:54;5.33;;;4.30;;
1382;SDS011;685;47.196;11.880;2023-04-16T02:07:21;7.53;;;4.63;;
1382;SDS011;685;47.196;11.880;2023-04-16T02:09:49;4.20;;;3.80;;
1382;SDS011;685;47.196;11.880;2023-04-16T02:12:17;5.37;;;4.63;;
1382;SDS011;685;47.196;11.880;2023-04-16T02:14:44;5.20;;;4.70;;
1382;SDS011;685;47.196;11.880;2023-04-16T02:17:11;4.07;;;3.70;;
1382;SDS011;685;47.196;11.880;2023-04-16T02:19:39;8.17;;;4.47;;
1382;SDS011;685;47.196;11.880;2023-04-16T02:22:06;4.83;;;3.97;;
1382;SDS011;685;47.196;11.880;2023-04-16T02:24:33;5.03;;;4.50;;
1382;SDS011;685;47.196;11.880;2023-04-16T02:27:00;5.27;;;4.77;;
1382;SDS011;685;47.196;11.880;2023-04-16T02:29:28;4.80;;;4.40;;
1382;SDS011;685;47.196;11.880;2023-04-16T02:31:56;5.30;;;4.80;;
1382;SDS011;685;47.196;11.880;2023-04-16T02:34:23;4.50;;;4.10;;
1382;SDS011;685;47.196;11.880;2023-04-16T02:36:50;4.67;;;4.27;;
1382;SDS011;685;47.196;11.880;2023-04-16T02:39:18;4.90;;;4.47;;
1382;SDS011;685;47.196;11.880;2023-04-16T02:41:45;6.17;;;5.63;;
1382;SDS011;685;47.196;11.880;2023-04-16T02:44:12;6.20;;;5.50;;
1382;SDS011;685;47.196;11.880;2023-04-16T02:46:40;6.60;;;5.47;;
1382;SDS011;685;47.196;11.880;2023-04-16T02:49:07;5.10;;;4.60;;
1382;SDS011;685;47.196;11.880;2023-04-16T02:51:34;5.70;;;5.10;;
1382;SDS011;685;47.196;11.880;2023-04-16T02:54:01;5.30;;;4.80;;
1382;SDS011;685;47.196;11.880;2023-04-16T02:56:28;5.90;;;5.40;;
1382;SDS011;685;47.196;11.880;2023-04-16T02:58:55;6.33;;;5.20;;
1382;SDS011;685;47.196;11.880;2023-04-16T03:01:21;6.87;;;5.77;;
1382;SDS011;685;47.196;11.880;2023-04-16T03:03:50;5.90;;;4.90;;
1382;SDS011;685;47.196;11.880;2023-04-16T03:06:17;5.90;;;5.30;;
1382;SDS011;685;47.196;11.880;2023-04-16T03:08:44;5.10;;;4.60;;
1382;SDS011;685;47.196;11.880;2023-04-16T03:11:10;5.23;;;4.73;;
1382;SDS011;685;47.196;11.880;2023-04-16T03:13:37;5.83;;;4.70;;
1382;SDS011;685;47.196;11.880;2023-04-16T03:16:05;6.70;;;6.10;;
1382;SDS011;685;47.196;11.880;2023-04-16T03:18:32;5.43;;;4.93;;
1382;SDS011;685;47.196;11.880;2023-04-16T03:21:00;5.33;;;4.67;;
1382;SDS011;685;47.196;11.880;2023-04-16T03:23:27;8.50;;;6.80;;
1382;SDS011;685;47.196;11.880;2023-04-16T03:25:54;6.20;;;5.60;;
1382;SDS011;685;47.196;11.880;2023-04-16T03:28:21;5.20;;;4.70;;
1382;SDS011;685;47.196;11.880;2023-04-16T03:30:49;6.40;;;5.77;;
1382;SDS011;685;47.196;11.880;2023-04-16T03:33:16;4.93;;;4.53;;
1382;SDS011;685;47.196;11.880;2023-04-16T03:35:43;6.60;;;5.30;;
1382;SDS011;685;47.196;11.880;2023-04-16T03:38:12;6.07;;;5.47;;
1382;SDS011;685;47.196;11.880;2023-04-16T03:40:39;6.27;;;4.73;;
1382;SDS011;685;47.196;11.880;2023-04-16T03:43:06;6.23;;;5.63;;
1382;SDS011;685;47.196;11.880;2023-04-16T03:45:33;5.37;;;4.87;;
1382;SDS011;685;47.196;11.880;2023-04-16T03:47:59;5.23;;;4.83;;
1382;SDS011;685;47.196;11.880;2023-04-16T03:50:26;4.90;;;4.40;;
1382;SDS011;685;47.196;11.880;2023-04-16T03:52:53;5.80;;;5.20;;
1382;SDS011;685;47.196;11.880;2023-04-16T03:55:22;6.53;;;6.00;;
1382;SDS011;685;47.196;11.880;2023-04-16T03:57:49;5.63;;;5.10;;
1382;SDS011;685;47.196;11.880;2023-04-16T04:00:15;4.80;;;4.03;;
1382;SDS011;685;47.196;11.880;2023-04-16T04:02:42;5.13;;;4.70;;
1382;SDS011;685;47.196;11.880;2023-04-16T04:05:09;7.87;;;5.23;;
1382;SDS011;685;47.196;11.880;2023-04-16T04:07:36;4.90;;;4.40;;
1382;SDS011;685;47.196;11.880;2023-04-16T04:10:04;5.57;;;4.80;;
1382;SDS011;685;47.196;11.880;2023-04-16T04:12:33;6.83;;;4.70;;
1382;SDS011;685;47.196;11.880;2023-04-16T04:14:59;5.30;;;4.80;;
1382;SDS011;685;47.196;11.880;2023-04-16T04:17:26;6.20;;;5.63;;
1382;SDS011;685;47.196;11.880;2023-04-16T04:19:53;5.37;;;4.83;;
1382;SDS011;685;47.196;11.880;2023-04-16T04:22:20;7.73;;;5.07;;
1382;SDS011;685;47.196;11.880;2023-04-16T04:24:47;4.93;;;4.37;;
1382;SDS011;685;47.196;11.880;2023-04-16T04:27:14;5.70;;;5.20;;
1382;SDS011;685;47.196;11.880;2023-04-16T04:29:42;5.20;;;4.63;;
1382;SDS011;685;47.196;11.880;2023-04-16T04:32:09;5.57;;;5.10;;
1382;SDS011;685;47.196;11.880;2023-04-16T04:34:36;5.93;;;5.33;;
1382;SDS011;685;47.196;11.880;2023-04-16T04:37:03;4.67;;;4.27;;
1382;SDS011;685;47.196;11.880;2023-04-16T04:39:30;6.27;;;5.67;;
1382;SDS011;685;47.196;11.880;2023-04-16T04:41:57;5.27;;;4.77;;
1382;SDS011;685;47.196;11.880;2023-04-16T04:44:24;4.97;;;4.57;;
1382;SDS011;685;47.196;11.880;2023-04-16T04:46:52;6.93;;;5.30;;
1382;SDS011;685;47.196;11.880;2023-04-16T04:49:19;6.53;;;5.00;;
1382;SDS011;685;47.196;11.880;2023-04-16T04:51:46;5.07;;;4.57;;
1382;SDS011;685;47.196;11.880;2023-04-16T04:54:13;5.87;;;5.33;;
1382;SDS011;685;47.196;11.880;2023-04-16T04:56:40;5.70;;;4.90;;
1382;SDS011;685;47.196;11.880;2023-04-16T04:59:09;6.07;;;5.47;;
1382;SDS011;685;47.196;11.880;2023-04-16T05:01:36;8.40;;;6.33;;
1382;SDS011;685;47.196;11.880;2023-04-16T05:04:05;7.83;;;6.60;;
1382;SDS011;685;47.196;11.880;2023-04-16T05:06:32;7.50;;;6.10;;
1382;SDS011;685;47.196;11.880;2023-04-16T05:08:59;7.33;;;6.60;;
1382;SDS011;685;47.196;11.880;2023-04-16T05:11:26;8.30;;;7.50;;
1382;SDS011;685;47.196;11.880;2023-04-16T05:13:53;7.30;;;6.60;;
1382;SDS011;685;47.196;11.880;2023-04-16T05:16:19;6.60;;;5.80;;
1382;SDS011;685;47.196;11.880;2023-04-16T05:18:46;7.13;;;6.30;;
1382;SDS011;685;47.196;11.880;2023-04-16T05:21:15;7.40;;;6.80;;
1382;SDS011;685;47.196;11.880;2023-04-16T05:23:42;6.90;;;6.20;;
1382;SDS011;685;47.196;11.880;2023-04-16T05:26:09;8.40;;;7.37;;
1382;SDS011;685;47.196;11.880;2023-04-16T05:28:36;7.40;;;6.67;;
1382;SDS011;685;47.196;11.880;2023-04-16T05:31:03;8.10;;;5.67;;
1382;SDS011;685;47.196;11.880;2023-04-16T05:33:30;6.00;;;5.43;;
1382;SDS011;685;47.196;11.880;2023-04-16T05:35:57;8.47;;;6.10;;
1382;SDS011;685;47.196;11.880;2023-04-16T05:38:25;5.70;;;5.20;;
1382;SDS011;685;47.196;11.880;2023-04-16T05:40:52;6.50;;;5.07;;
1382;SDS011;685;47.196;11.880;2023-04-16T05:43:19;5.90;;;5.40;;
1382;SDS011;685;47.196;11.880;2023-04-16T05:45:46;5.60;;;5.10;;
1382;SDS011;685;47.196;11.880;2023-04-16T05:48:13;6.03;;;5.47;;
1382;SDS011;685;47.196;11.880;2023-04-16T05:50:40;7.63;;;6.67;;
1382;SDS011;685;47.196;11.880;2023-04-16T05:53:07;7.67;;;6.47;;
1382;SDS011;685;47.196;11.880;2023-04-16T05:55:36;7.30;;;6.60;;
1382;SDS011;685;47.196;11.880;2023-04-16T05:58:03;6.60;;;6.00;;
1382;SDS011;685;47.196;11.880;2023-04-16T06:00:30;10.00;;;6.00;;
1382;SDS011;685;47.196;11.880;2023-04-16T06:02:57;7.60;;;6.67;;
1382;SDS011;685;47.196;11.880;2023-04-16T06:05:24;7.93;;;6.97;;
1382;SDS011;685;47.196;11.880;2023-04-16T06:07:51;7.50;;;6.90;;
1382;SDS011;685;47.196;11.880;2023-04-16T06:10:20;8.27;;;7.37;;
1382;SDS011;685;47.196;11.880;2023-04-16T06:12:48;8.20;;;7.03;;
1382;SDS011;685;47.196;11.880;2023-04-16T06:15:15;9.13;;;6.97;;
1382;SDS011;685;47.196;11.880;2023-04-16T06:17:42;7.70;;;6.90;;
1382;SDS011;685;47.196;11.880;2023-04-16T06:20:09;9.20;;;7.90;;
1382;SDS011;685;47.196;11.880;2023-04-16T06:22:37;8.00;;;7.03;;
1382;SDS011;685;47.196;11.880;2023-04-16T06:25:05;8.40;;;7.10;;
1382;SDS011;685;47.196;11.880;2023-04-16T06:27:32;7.87;;;7.07;;
1382;SDS011;685;47.196;11.880;2023-04-16T06:30:00;8.27;;;7.47;;
1382;SDS011;685;47.196;11.880;2023-04-16T06:32:27;7.53;;;6.80;;
1382;SDS011;685;47.196;11.880;2023-04-16T06:34:54;8.50;;;7.77;;
1382;SDS011;685;47.196;11.880;2023-04-16T06:37:22;7.70;;;6.90;;
1382;SDS011;685;47.196;11.880;2023-04-16T06:39:49;8.17;;;7.07;;
1382;SDS011;685;47.196;11.880;2023-04-16T06:42:16;8.57;;;7.77;;
1382;SDS011;685;47.196;11.880;2023-04-16T06:44:43;8.40;;;7.57;;
1382;SDS011;685;47.196;11.880;2023-04-16T06:47:11;8.20;;;7.30;;
1382;SDS011;685;47.196;11.880;2023-04-16T06:49:38;7.40;;;6.80;;
1382;SDS011;685;47.196;11.880;2023-04-16T06:52:05;7.30;;;6.60;;
1382;SDS011;685;47.196;11.880;2023-04-16T06:54:32;8.93;;;8.13;;
1382;SDS011;685;47.196;11.880;2023-04-16T06:56:59;8.70;;;7.90;;
1382;SDS011;685;47.196;11.880;2023-04-16T06:59:26;8.20;;;7.40;;
1382;SDS011;685;47.196;11.880;2023-04-16T07:01:53;8.47;;;7.67;;
1382;SDS011;685;47.196;11.880;2023-04-16T07:04:21;9.60;;;7.17;;
1382;SDS011;685;47.196;11.880;2023-04-16T07:06:48;9.90;;;8.37;;
1382;SDS011;685;47.196;11.880;2023-04-16T07:09:15;10.57;;;8.57;;
1382;SDS011;685;47.196;11.880;2023-04-16T07:11:42;8.40;;;7.60;;
1382;SDS011;685;47.196;11.880;2023-04-16T07:14:09;9.07;;;8.17;;
1382;SDS011;685;47.196;11.880;2023-04-16T07:16:37;8.83;;;7.97;;
1382;SDS011;685;47.196;11.880;2023-04-16T07:19:04;8.07;;;7.13;;
1382;SDS011;685;47.196;11.880;2023-04-16T07:21:32;9.70;;;8.67;;
1382;SDS011;685;47.196;11.880;2023-04-16T07:23:59;9.27;;;7.50;;
1382;SDS011;685;47.196;11.880;2023-04-16T07:26:26;8.37;;;7.43;;
1382;SDS011;685;47.196;11.880;2023-04-16T07:28:53;8.70;;;7.17;;
1382;SDS011;685;47.196;11.880;2023-04-16T07:31:20;8.13;;;7.23;;
1382;SDS011;685;47.196;11.880;2023-04-16T07:33:47;7.90;;;7.10;;
1382;SDS011;685;47.196;11.880;2023-04-16T07:36:14;9.57;;;7.80;;
1382;SDS011;685;47.196;11.880;2023-04-16T07:38:42;10.00;;;7.90;;
1382;SDS011;685;47.196;11.880;2023-04-16T07:41:09;9.27;;;8.40;;
1382;SDS011;685;47.196;11.880;2023-04-16T07:43:36;9.60;;;8.70;;
1382;SDS011;685;47.196;11.880;2023-04-16T07:46:03;10.63;;;9.10;;
1382;SDS011;685;47.196;11.880;2023-04-16T07:48:30;9.83;;;8.93;;
1382;SDS011;685;47.196;11.880;2023-04-16T07:50:57;10.23;;;9.27;;
1382;SDS011;685;47.196;11.880;2023-04-16T07:53:24;9.77;;;8.80;;
1382;SDS011;685;47.196;11.880;2023-04-16T07:55:53;11.40;;;10.20;;
1382;SDS011;685;47.196;11.880;2023-04-16T07:58:20;10.27;;;9.20;;
1382;SDS011;685;47.196;11.880;2023-04-16T08:00:47;10.80;;;9.70;;
1382;SDS011;685;47.196;11.880;2023-04-16T08:03:14;10.83;;;9.17;;
1382;SDS011;685;47.196;11.880;2023-04-16T08:05:41;10.60;;;9.60;;
1382;SDS011;685;47.196;11.880;2023-04-16T08:08:07;10.27;;;9.27;;
1382;SDS011;685;47.196;11.880;2023-04-16T08:10:34;9.97;;;8.97;;
1382;SDS011;685;47.196;11.880;2023-04-16T08:13:03;10.67;;;9.40;;
1382;SDS011;685;47.196;11.880;2023-04-16T08:15:30;9.53;;;8.53;;
1382;SDS011;685;47.196;11.880;2023-04-16T08:17:57;10.47;;;9.17;;
1382;SDS011;685;47.196;11.880;2023-04-16T08:20:24;9.23;;;8.33;;
1382;SDS011;685;47.196;11.880;2023-04-16T08:22:52;8.07;;;7.27;;
1382;SDS011;685;47.196;11.880;2023-04-16T08:25:19;9.47;;;8.47;;
1382;SDS011;685;47.196;11.880;2023-04-16T08:27:47;9.20;;;7.93;;
1382;SDS011;685;47.196;11.880;2023-04-16T08:30:16;8.20;;;7.40;;
1382;SDS011;685;47.196;11.880;2023-04-16T08:32:43;8.40;;;6.90;;
1382;SDS011;685;47.196;11.880;2023-04-16T08:35:10;7.80;;;6.90;;
1382;SDS011;685;47.196;11.880;2023-04-16T08:37:37;8.27;;;7.37;;
1382;SDS011;685;47.196;11.880;2023-04-16T08:40:04;7.43;;;6.67;;
1382;SDS011;685;47.196;11.880;2023-04-16T08:42:33;8.47;;;7.53;;
1382;SDS011;685;47.196;11.880;2023-04-16T08:45:05;8.30;;;7.30;;
1382;SDS011;685;47.196;11.880;2023-04-16T08:47:35;10.70;;;7.57;;
1382;SDS011;685;47.196;11.880;2023-04-16T08:50:02;6.60;;;6.00;;
1382;SDS011;685;47.196;11.880;2023-04-16T08:52:30;9.87;;;7.03;;
1382;SDS011;685;47.196;11.880;2023-04-16T08:55:00;6.60;;;6.00;;
1382;SDS011;685;47.196;11.880;2023-04-16T08:57:34;7.67;;;6.90;;
1382;SDS011;685;47.196;11.880;2023-04-16T09:00:05;9.37;;;7.07;;
1382;SDS011;685;47.196;11.880;2023-04-16T09:02:35;8.27;;;6.40;;
1382;SDS011;685;47.196;11.880;2023-04-16T09:05:04;7.97;;;7.27;;
1382;SDS011;685;47.196;11.880;2023-04-16T09:07:33;7.30;;;6.30;;
1382;SDS011;685;47.196;11.880;2023-04-16T09:10:00;7.23;;;6.50;;
1382;SDS011;685;47.196;11.880;2023-04-16T09:12:27;6.90;;;5.80;;
1382;SDS011;685;47.196;11.880;2023-04-16T09:14:55;6.90;;;6.20;;
1382;SDS011;685;47.196;11.880;2023-04-16T09:17:23;6.77;;;6.07;;
1382;SDS011;685;47.196;11.880;2023-04-16T09:19:52;6.30;;;5.50;;
1382;SDS011;685;47.196;11.880;2023-04-16T09:22:20;6.83;;;6.07;;
1382;SDS011;685;47.196;11.880;2023-04-16T09:24:46;7.30;;;5.90;;
1382;SDS011;685;47.196;11.880;2023-04-16T09:27:13;5.80;;;4.80;;
1382;SDS011;685;47.196;11.880;2023-04-16T09:29:40;6.30;;;5.20;;
1382;SDS011;685;47.196;11.880;2023-04-16T09:32:08;5.13;;;4.63;;
1382;SDS011;685;47.196;11.880;2023-04-16T09:37:22;5.83;;;5.07;;
1382;SDS011;685;47.196;11.880;2023-04-16T09:39:53;5.80;;;5.20;;
1382;SDS011;685;47.196;11.880;2023-04-16T09:42:22;6.73;;;5.23;;
1382;SDS011;685;47.196;11.880;2023-04-16T09:44:51;5.73;;;4.87;;
1382;SDS011;685;47.196;11.880;2023-04-16T09:47:18;5.60;;;4.77;;
1382;SDS011;685;47.196;11.880;2023-04-16T09:49:45;5.83;;;5.20;;
1382;SDS011;685;47.196;11.880;2023-04-16T09:52:15;5.80;;;5.20;;
1382;SDS011;685;47.196;11.880;2023-04-16T09:54:46;5.87;;;5.10;;
1382;SDS011;685;47.196;11.880;2023-04-16T09:57:13;6.10;;;4.97;;
1382;SDS011;685;47.196;11.880;2023-04-16T09:59:44;4.93;;;4.43;;
1382;SDS011;685;47.196;11.880;2023-04-16T10:02:11;5.80;;;4.90;;
1382;SDS011;685;47.196;11.880;2023-04-16T10:04:48;5.53;;;5.03;;
1382;SDS011;685;47.196;11.880;2023-04-16T10:07:17;6.20;;;5.60;;
1382;SDS011;685;47.196;11.880;2023-04-16T10:09:45;5.77;;;5.23;;
1382;SDS011;685;47.196;11.880;2023-04-16T10:12:14;5.73;;;5.13;;
1382;SDS011;685;47.196;11.880;2023-04-16T10:14:41;5.77;;;5.17;;
1382;SDS011;685;47.196;11.880;2023-04-16T10:17:08;6.03;;;4.80;;
1382;SDS011;685;47.196;11.880;2023-04-16T10:19:35;5.50;;;4.90;;
1382;SDS011;685;47.196;11.880;2023-04-16T10:22:03;4.60;;;4.20;;
1382;SDS011;685;47.196;11.880;2023-04-16T10:24:31;5.57;;;4.87;;
1382;SDS011;685;47.196;11.880;2023-04-16T10:27:00;6.20;;;5.10;;
1382;SDS011;685;47.196;11.880;2023-04-16T10:29:28;6.70;;;4.90;;
1382;SDS011;685;47.196;11.880;2023-04-16T10:31:56;4.67;;;4.23;;
1382;SDS011;685;47.196;11.880;2023-04-16T10:34:24;4.63;;;4.10;;
1382;SDS011;685;47.196;11.880;2023-04-16T10:36:53;5.33;;;4.60;;
1382;SDS011;685;47.196;11.880;2023-04-16T10:39:20;4.60;;;4.20;;
1382;SDS011;685;47.196;11.880;2023-04-16T10:41:50;4.67;;;4.27;;
1382;SDS011;685;47.196;11.880;2023-04-16T10:44:32;4.00;;;3.60;;
1382;SDS011;685;47.196;11.880;2023-04-16T10:47:00;5.07;;;4.00;;
1382;SDS011;685;47.196;11.880;2023-04-16T10:49:27;4.20;;;3.80;;
1382;SDS011;685;47.196;11.880;2023-04-16T10:51:54;4.57;;;4.00;;
1382;SDS011;685;47.196;11.880;2023-04-16T10:54:23;4.87;;;4.40;;
1382;SDS011;685;47.196;11.880;2023-04-16T10:56:53;4.63;;;3.50;;
1382;SDS011;685;47.196;11.880;2023-04-16T10:59:22;3.33;;;3.03;;
1382;SDS011;685;47.196;11.880;2023-04-16T11:01:51;4.23;;;3.80;;
1382;SDS011;685;47.196;11.880;2023-04-16T11:04:26;3.90;;;3.50;;
1382;SDS011;685;47.196;11.880;2023-04-16T11:07:01;3.90;;;3.50;;
1382;SDS011;685;47.196;11.880;2023-04-16T11:09:46;4.33;;;3.27;;
1382;SDS011;685;47.196;11.880;2023-04-16T11:12:22;3.90;;;3.53;;
1382;SDS011;685;47.196;11.880;2023-04-16T11:14:51;4.07;;;3.70;;
1382;SDS011;685;47.196;11.880;2023-04-16T11:17:19;3.17;;;2.87;;
1382;SDS011;685;47.196;11.880;2023-04-16T11:19:47;3.70;;;3.40;;
1382;SDS011;685;47.196;11.880;2023-04-16T11:22:15;4.10;;;3.77;;
1382;SDS011;685;47.196;11.880;2023-04-16T11:24:43;3.77;;;3.47;;
1382;SDS011;685;47.196;11.880;2023-04-16T11:27:12;4.10;;;3.80;;
1382;SDS011;685;47.196;11.880;2023-04-16T11:29:41;4.17;;;3.70;;
1382;SDS011;685;47.196;11.880;2023-04-16T11:32:08;4.13;;;3.70;;
1382;SDS011;685;47.196;11.880;2023-04-16T11:34:42;3.80;;;3.50;;
1382;SDS011;685;47.196;11.880;2023-04-16T11:37:09;3.83;;;3.53;;
1382;SDS011;685;47.196;11.880;2023-04-16T11:39:46;3.63;;;3.33;;
1382;SDS011;685;47.196;11.880;2023-04-16T11:42:17;4.17;;;3.77;;
1382;SDS011;685;47.196;11.880;2023-04-16T11:44:48;4.37;;;3.97;;
1382;SDS011;685;47.196;11.880;2023-04-16T11:47:18;3.47;;;3.17;;
1382;SDS011;685;47.196;11.880;2023-04-16T11:49:45;4.07;;;3.67;;
1382;SDS011;685;47.196;11.880;2023-04-16T11:52:12;3.27;;;2.80;;
1382;SDS011;685;47.196;11.880;2023-04-16T11:54:39;3.40;;;3.10;;
1382;SDS011;685;47.196;11.880;2023-04-16T11:57:06;3.20;;;2.90;;
1382;SDS011;685;47.196;11.880;2023-04-16T11:59:33;4.50;;;3.13;;
1382;SDS011;685;47.196;11.880;2023-04-16T12:02:02;3.47;;;3.00;;
1382;SDS011;685;47.196;11.880;2023-04-16T12:04:29;3.10;;;2.90;;
1382;SDS011;685;47.196;11.880;2023-04-16T12:07:05;3.80;;;3.40;;
1382;SDS011;685;47.196;11.880;2023-04-16T12:09:33;12.90;;;10.90;;
1382;SDS011;685;47.196;11.880;2023-04-16T12:12:01;5.10;;;3.60;;
1382;SDS011;685;47.196;11.880;2023-04-16T12:14:28;3.70;;;3.40;;
1382;SDS011;685;47.196;11.880;2023-04-16T12:16:56;3.53;;;3.27;;
1382;SDS011;685;47.196;11.880;2023-04-16T12:19:50;3.93;;;3.30;;
1382;SDS011;685;47.196;11.880;2023-04-16T12:22:24;3.50;;;3.13;;
1382;SDS011;685;47.196;11.880;2023-04-16T12:24:57;3.47;;;3.17;;
1382;SDS011;685;47.196;11.880;2023-04-16T12:27:24;3.67;;;3.17;;
1382;SDS011;685;47.196;11.880;2023-04-16T12:30:02;3.30;;;2.87;;
1382;SDS011;685;47.196;11.880;2023-04-16T12:32:32;3.90;;;3.10;;
1382;SDS011;685;47.196;11.880;2023-04-16T12:34:58;3.07;;;2.80;;
1382;SDS011;685;47.196;11.880;2023-04-16T12:37:25;3.67;;;2.77;;
1382;SDS011;685;47.196;11.880;2023-04-16T12:39:52;2.50;;;2.30;;
1382;SDS011;685;47.196;11.880;2023-04-16T12:42:19;4.20;;;2.70;;
1382;SDS011;685;47.196;11.880;2023-04-16T12:44:46;3.20;;;2.90;;
1382;SDS011;685;47.196;11.880;2023-04-16T12:47:13;3.07;;;2.60;;
1382;SDS011;685;47.196;11.880;2023-04-16T12:49:41;3.93;;;2.37;;
1382;SDS011;685;47.196;11.880;2023-04-16T12:52:09;2.87;;;2.40;;
1382;SDS011;685;47.196;11.880;2023-04-16T12:54:36;2.70;;;2.50;;
1382;SDS011;685;47.196;11.880;2023-04-16T12:57:03;3.27;;;2.97;;
1382;SDS011;685;47.196;11.880;2023-04-16T12:59:30;4.80;;;2.87;;
1382;SDS011;685;47.196;11.880;2023-04-16T13:01:59;2.10;;;1.87;;
1382;SDS011;685;47.196;11.880;2023-04-16T13:04:27;3.13;;;2.50;;
1382;SDS011;685;47.196;11.880;2023-04-16T13:06:55;2.20;;;2.00;;
1382;SDS011;685;47.196;11.880;2023-04-16T13:09:22;2.77;;;1.73;;
1382;SDS011;685;47.196;11.880;2023-04-16T13:11:49;2.20;;;2.00;;
1382;SDS011;685;47.196;11.880;2023-04-16T13:14:16;3.10;;;2.33;;
1382;SDS011;685;47.196;11.880;2023-04-16T13:16:43;2.47;;;2.00;;
1382;SDS011;685;47.196;11.880;2023-04-16T13:19:10;2.83;;;2.27;;
1382;SDS011;685;47.196;11.880;2023-04-16T13:21:37;2.53;;;2.33;;
1382;SDS011;685;47.196;11.880;2023-04-16T13:24:06;2.77;;;2.50;;
1382;SDS011;685;47.196;11.880;2023-04-16T13:26:33;3.60;;;2.60;;
1382;SDS011;685;47.196;11.880;2023-04-16T13:29:00;1.97;;;1.77;;
1382;SDS011;685;47.196;11.880;2023-04-16T13:31:26;2.60;;;1.90;;
1382;SDS011;685;47.196;11.880;2023-04-16T13:33:53;2.77;;;2.20;;
1382;SDS011;685;47.196;11.880;2023-04-16T13:36:20;2.73;;;2.13;;
1382;SDS011;685;47.196;11.880;2023-04-16T13:38:47;2.30;;;2.10;;
1382;SDS011;685;47.196;11.880;2023-04-16T13:41:15;1.87;;;1.70;;
1382;SDS011;685;47.196;11.880;2023-04-16T13:43:42;2.00;;;1.40;;
1382;SDS011;685;47.196;11.880;2023-04-16T13:46:09;2.40;;;2.10;;
1382;SDS011;685;47.196;11.880;2023-04-16T13:48:36;2.17;;;1.43;;
1382;SDS011;685;47.196;11.880;2023-04-16T13:51:04;1.63;;;1.53;;
1382;SDS011;685;47.196;11.880;2023-04-16T13:53:31;1.93;;;1.53;;
1382;SDS011;685;47.196;11.880;2023-04-16T13:55:57;1.40;;;0.83;;
1382;SDS011;685;47.196;11.880;2023-04-16T13:58:29;2.10;;;1.03;;
1382;SDS011;685;47.196;11.880;2023-04-16T14:00:55;1.20;;;1.00;;
1382;SDS011;685;47.196;11.880;2023-04-16T14:03:23;1.30;;;1.10;;
1382;SDS011;685;47.196;11.880;2023-04-16T14:05:50;1.40;;;1.13;;
1382;SDS011;685;47.196;11.880;2023-04-16T14:08:18;1.53;;;1.27;;
1382;SDS011;685;47.196;11.880;2023-04-16T14:10:46;1.17;;;0.70;;
1382;SDS011;685;47.196;11.880;2023-04-16T14:13:13;1.20;;;0.83;;
1382;SDS011;685;47.196;11.880;2023-04-16T14:15:42;1.40;;;0.87;;
1382;SDS011;685;47.196;11.880;2023-04-16T14:18:09;1.10;;;0.80;;
1382;SDS011;685;47.196;11.880;2023-04-16T14:20:35;1.70;;;1.00;;
1382;SDS011;685;47.196;11.880;2023-04-16T14:23:04;1.10;;;0.70;;
1382;SDS011;685;47.196;11.880;2023-04-16T14:25:30;1.00;;;0.70;;
1382;SDS011;685;47.196;11.880;2023-04-16T14:27:58;2.27;;;0.90;;
1382;SDS011;685;47.196;11.880;2023-04-16T14:30:25;1.53;;;1.10;;
1382;SDS011;685;47.196;11.880;2023-04-16T14:32:53;1.40;;;1.10;;
1382;SDS011;685;47.196;11.880;2023-04-16T14:35:20;2.13;;;1.20;;
1382;SDS011;685;47.196;11.880;2023-04-16T14:37:48;1.13;;;0.90;;
1382;SDS011;685;47.196;11.880;2023-04-16T14:40:15;1.10;;;0.90;;
1382;SDS011;685;47.196;11.880;2023-04-16T14:42:42;1.87;;;0.80;;
1382;SDS011;685;47.196;11.880;2023-04-16T14:45:08;1.00;;;0.73;;
1382;SDS011;685;47.196;11.880;2023-04-16T14:47:36;1.57;;;0.80;;
1382;SDS011;685;47.196;11.880;2023-04-16T14:50:11;1.73;;;0.90;;
1382;SDS011;685;47.196;11.880;2023-04-16T14:52:37;1.00;;;0.87;;
1382;SDS011;685;47.196;11.880;2023-04-16T14:55:05;1.27;;;0.90;;
1382;SDS011;685;47.196;11.880;2023-04-16T14:57:32;2.80;;;1.20;;
1382;SDS011;685;47.196;11.880;2023-04-16T14:59:59;0.93;;;0.60;;
1382;SDS011;685;47.196;11.880;2023-04-16T15:02:32;1.10;;;1.00;;
1382;SDS011;685;47.196;11.880;2023-04-16T15:04:59;1.17;;;0.80;;
1382;SDS011;685;47.196;11.880;2023-04-16T15:07:27;1.30;;;1.00;;
1382;SDS011;685;47.196;11.880;2023-04-16T15:09:54;1.00;;;0.70;;
1382;SDS011;685;47.196;11.880;2023-04-16T15:12:21;1.03;;;0.73;;
1382;SDS011;685;47.196;11.880;2023-04-16T15:14:48;1.90;;;0.80;;
1382;SDS011;685;47.196;11.880;2023-04-16T15:17:15;1.13;;;0.73;;
1382;SDS011;685;47.196;11.880;2023-04-16T15:19:42;0.97;;;0.73;;
1382;SDS011;685;47.196;11.880;2023-04-16T15:22:09;1.00;;;0.70;;